sensor_id;sensor_type;location;lat;lon;timestamp;temperature;humidity
72128;DHT22;60000;51.030;7.024;2023-03-14T00:02:21;11.06;75.16
72128;DHT22;60000;51.030;7.024;2023-03-14T00:04:46;11.12;74.97
72128;DHT22;60000;51.030;7.024;2023-03-14T00:07:12;11.15;74.72
72128;DHT22;60000;51.030;7.024;2023-03-14T00:09:37;11.15;74.63
72128;DHT22;60000;51.030;7.024;2023-03-14T00:12:03;11.20;74.44
72128;DHT22;60000;51.030;7.024;2023-03-14T00:14:29;11.17;74.42
72128;DHT22;60000;51.030;7.024;2023-03-14T00:16:56;11.19;74.36
72128;DHT22;60000;51.030;7.024;2023-03-14T00:19:21;11.23;74.35
72128;DHT22;60000;51.030;7.024;2023-03-14T00:21:46;11.24;74.15
72128;DHT22;60000;51.030;7.024;2023-03-14T00:24:12;11.26;74.10
72128;DHT22;60000;51.030;7.024;2023-03-14T00:26:37;11.30;73.88
72128;DHT22;60000;51.030;7.024;2023-03-14T00:29:02;11.31;73.90
72128;DHT22;60000;51.030;7.024;2023-03-14T00:31:28;11.37;73.60
72128;DHT22;60000;51.030;7.024;2023-03-14T00:33:53;11.37;73.60
72128;DHT22;60000;51.030;7.024;2023-03-14T00:36:20;11.37;73.64
72128;DHT22;60000;51.030;7.024;2023-03-14T00:38:47;11.34;73.75
72128;DHT22;60000;51.030;7.024;2023-03-14T00:41:16;11.33;73.66
72128;DHT22;60000;51.030;7.024;2023-03-14T00:43:42;11.36;73.45
72128;DHT22;60000;51.030;7.024;2023-03-14T00:46:07;11.36;73.62
72128;DHT22;60000;51.030;7.024;2023-03-14T00:48:33;11.36;73.42
72128;DHT22;60000;51.030;7.024;2023-03-14T00:50:59;11.36;73.55
72128;DHT22;60000;51.030;7.024;2023-03-14T00:53:24;11.36;73.55
72128;DHT22;60000;51.030;7.024;2023-03-14T00:55:50;11.37;73.44
72128;DHT22;60000;51.030;7.024;2023-03-14T00:58:16;11.37;73.46
72128;DHT22;60000;51.030;7.024;2023-03-14T01:00:42;11.37;73.39
72128;DHT22;60000;51.030;7.024;2023-03-14T01:03:09;11.38;73.33
72128;DHT22;60000;51.030;7.024;2023-03-14T01:05:34;11.37;74.33
72128;DHT22;60000;51.030;7.024;2023-03-14T01:08:00;11.36;75.82
72128;DHT22;60000;51.030;7.024;2023-03-14T01:10:26;11.34;77.52
72128;DHT22;60000;51.030;7.024;2023-03-14T01:12:51;11.05;77.91
72128;DHT22;60000;51.030;7.024;2023-03-14T01:15:17;10.85;79.17
72128;DHT22;60000;51.030;7.024;2023-03-14T01:17:42;10.58;80.49
72128;DHT22;60000;51.030;7.024;2023-03-14T01:20:10;10.28;81.66
72128;DHT22;60000;51.030;7.024;2023-03-14T01:22:37;10.13;83.40
72128;DHT22;60000;51.030;7.024;2023-03-14T01:25:05;10.01;84.00
72128;DHT22;60000;51.030;7.024;2023-03-14T01:27:32;9.97;83.04
72128;DHT22;60000;51.030;7.024;2023-03-14T01:29:57;9.87;83.41
72128;DHT22;60000;51.030;7.024;2023-03-14T01:32:22;9.80;83.41
72128;DHT22;60000;51.030;7.024;2023-03-14T01:34:49;9.76;83.70
72128;DHT22;60000;51.030;7.024;2023-03-14T01:37:14;9.78;83.88
72128;DHT22;60000;51.030;7.024;2023-03-14T01:39:39;9.68;84.40
72128;DHT22;60000;51.030;7.024;2023-03-14T01:42:04;9.63;84.59
72128;DHT22;60000;51.030;7.024;2023-03-14T01:44:49;9.60;84.92
72128;DHT22;60000;51.030;7.024;2023-03-14T01:47:15;9.55;85.14
72128;DHT22;60000;51.030;7.024;2023-03-14T01:49:40;9.56;85.34
72128;DHT22;60000;51.030;7.024;2023-03-14T01:52:10;9.52;85.59
72128;DHT22;60000;51.030;7.024;2023-03-14T01:54:39;9.51;85.76
72128;DHT22;60000;51.030;7.024;2023-03-14T01:57:12;9.46;86.17
72128;DHT22;60000;51.030;7.024;2023-03-14T01:59:40;9.46;86.35
72128;DHT22;60000;51.030;7.024;2023-03-14T02:02:09;9.49;86.65
72128;DHT22;60000;51.030;7.024;2023-03-14T02:04:36;9.51;86.88
72128;DHT22;60000;51.030;7.024;2023-03-14T02:09:38;9.53;86.74
72128;DHT22;60000;51.030;7.024;2023-03-14T02:12:04;9.53;86.40
72128;DHT22;60000;51.030;7.024;2023-03-14T02:14:33;9.59;86.01
72128;DHT22;60000;51.030;7.024;2023-03-14T02:17:00;9.59;85.75
72128;DHT22;60000;51.030;7.024;2023-03-14T02:22:12;9.59;85.44
72128;DHT22;60000;51.030;7.024;2023-03-14T02:24:49;9.60;85.30
72128;DHT22;60000;51.030;7.024;2023-03-14T02:27:19;9.63;85.13
72128;DHT22;60000;51.030;7.024;2023-03-14T02:30:00;9.65;85.01
72128;DHT22;60000;51.030;7.024;2023-03-14T02:32:27;9.60;84.97
72128;DHT22;60000;51.030;7.024;2023-03-14T02:34:56;9.63;84.97
72128;DHT22;60000;51.030;7.024;2023-03-14T02:37:25;9.59;84.96
72128;DHT22;60000;51.030;7.024;2023-03-14T02:39:52;9.58;85.04
72128;DHT22;60000;51.030;7.024;2023-03-14T02:42:17;9.53;85.05
72128;DHT22;60000;51.030;7.024;2023-03-14T02:44:54;9.56;85.21
72128;DHT22;60000;51.030;7.024;2023-03-14T02:47:26;9.51;85.28
72128;DHT22;60000;51.030;7.024;2023-03-14T02:49:55;9.51;85.31
72128;DHT22;60000;51.030;7.024;2023-03-14T02:52:23;9.45;85.46
72128;DHT22;60000;51.030;7.024;2023-03-14T02:54:48;9.48;85.50
72128;DHT22;60000;51.030;7.024;2023-03-14T02:57:14;9.45;85.50
72128;DHT22;60000;51.030;7.024;2023-03-14T02:59:39;9.41;85.58
72128;DHT22;60000;51.030;7.024;2023-03-14T03:02:04;9.39;85.75
72128;DHT22;60000;51.030;7.024;2023-03-14T03:04:29;9.41;85.69
72128;DHT22;60000;51.030;7.024;2023-03-14T03:06:55;9.41;85.87
72128;DHT22;60000;51.030;7.024;2023-03-14T03:09:20;9.38;85.97
72128;DHT22;60000;51.030;7.024;2023-03-14T03:11:45;9.39;86.02
72128;DHT22;60000;51.030;7.024;2023-03-14T03:14:11;9.42;85.96
72128;DHT22;60000;51.030;7.024;2023-03-14T03:16:36;9.38;86.02
72128;DHT22;60000;51.030;7.024;2023-03-14T03:19:01;9.34;86.13
72128;DHT22;60000;51.030;7.024;2023-03-14T03:21:27;9.35;86.39
72128;DHT22;60000;51.030;7.024;2023-03-14T03:23:52;9.34;86.57
72128;DHT22;60000;51.030;7.024;2023-03-14T03:26:17;9.34;86.61
72128;DHT22;60000;51.030;7.024;2023-03-14T03:28:42;9.32;86.81
72128;DHT22;60000;51.030;7.024;2023-03-14T03:31:09;9.28;86.84
72128;DHT22;60000;51.030;7.024;2023-03-14T03:33:36;9.32;86.90
72128;DHT22;60000;51.030;7.024;2023-03-14T03:36:02;9.30;86.94
72128;DHT22;60000;51.030;7.024;2023-03-14T03:38:27;9.30;86.96
72128;DHT22;60000;51.030;7.024;2023-03-14T03:40:52;9.27;87.02
72128;DHT22;60000;51.030;7.024;2023-03-14T03:43:18;9.27;87.14
72128;DHT22;60000;51.030;7.024;2023-03-14T03:45:43;9.24;87.27
72128;DHT22;60000;51.030;7.024;2023-03-14T03:48:08;9.24;87.30
72128;DHT22;60000;51.030;7.024;2023-03-14T03:50:34;9.25;87.32
72128;DHT22;60000;51.030;7.024;2023-03-14T03:52:59;9.22;87.41
72128;DHT22;60000;51.030;7.024;2023-03-14T03:55:25;9.25;87.41
72128;DHT22;60000;51.030;7.024;2023-03-14T03:57:51;9.30;87.16
72128;DHT22;60000;51.030;7.024;2023-03-14T04:00:17;9.31;87.06
72128;DHT22;60000;51.030;7.024;2023-03-14T04:02:42;9.30;86.99
72128;DHT22;60000;51.030;7.024;2023-03-14T04:05:08;9.31;86.79
72128;DHT22;60000;51.030;7.024;2023-03-14T04:07:33;9.32;86.81
72128;DHT22;60000;51.030;7.024;2023-03-14T04:09:58;9.32;86.80
72128;DHT22;60000;51.030;7.024;2023-03-14T04:12:24;9.32;86.96
72128;DHT22;60000;51.030;7.024;2023-03-14T04:14:49;9.36;86.91
72128;DHT22;60000;51.030;7.024;2023-03-14T04:17:14;9.34;86.86
72128;DHT22;60000;51.030;7.024;2023-03-14T04:19:40;9.34;86.92
72128;DHT22;60000;51.030;7.024;2023-03-14T04:22:05;9.35;86.93
72128;DHT22;60000;51.030;7.024;2023-03-14T04:24:31;9.31;86.99
72128;DHT22;60000;51.030;7.024;2023-03-14T04:26:56;9.32;87.24
72128;DHT22;60000;51.030;7.024;2023-03-14T04:29:21;9.31;87.31
72128;DHT22;60000;51.030;7.024;2023-03-14T04:31:46;9.28;87.58
72128;DHT22;60000;51.030;7.024;2023-03-14T04:34:12;9.30;87.67
72128;DHT22;60000;51.030;7.024;2023-03-14T04:36:37;9.28;87.76
72128;DHT22;60000;51.030;7.024;2023-03-14T04:39:02;9.27;87.80
72128;DHT22;60000;51.030;7.024;2023-03-14T04:41:29;9.25;87.91
72128;DHT22;60000;51.030;7.024;2023-03-14T04:43:54;9.28;87.97
72128;DHT22;60000;51.030;7.024;2023-03-14T04:46:19;9.24;88.07
72128;DHT22;60000;51.030;7.024;2023-03-14T04:48:45;9.25;88.18
72128;DHT22;60000;51.030;7.024;2023-03-14T04:51:10;9.22;88.15
72128;DHT22;60000;51.030;7.024;2023-03-14T04:53:35;9.28;88.17
72128;DHT22;60000;51.030;7.024;2023-03-14T04:56:02;9.27;88.15
72128;DHT22;60000;51.030;7.024;2023-03-14T04:58:28;9.30;88.10
72128;DHT22;60000;51.030;7.024;2023-03-14T05:00:53;9.30;88.06
72128;DHT22;60000;51.030;7.024;2023-03-14T05:03:18;9.32;87.92
72128;DHT22;60000;51.030;7.024;2023-03-14T05:05:44;9.31;88.03
72128;DHT22;60000;51.030;7.024;2023-03-14T05:08:10;9.32;88.11
72128;DHT22;60000;51.030;7.024;2023-03-14T05:10:35;9.31;88.19
72128;DHT22;60000;51.030;7.024;2023-03-14T05:13:01;9.31;88.26
72128;DHT22;60000;51.030;7.024;2023-03-14T05:15:26;9.34;88.35
72128;DHT22;60000;51.030;7.024;2023-03-14T05:17:51;9.31;88.30
72128;DHT22;60000;51.030;7.024;2023-03-14T05:20:18;9.34;88.33
72128;DHT22;60000;51.030;7.024;2023-03-14T05:22:43;9.30;88.43
72128;DHT22;60000;51.030;7.024;2023-03-14T05:25:09;9.31;88.40
72128;DHT22;60000;51.030;7.024;2023-03-14T05:27:34;9.34;88.34
72128;DHT22;60000;51.030;7.024;2023-03-14T05:30:01;9.36;88.20
72128;DHT22;60000;51.030;7.024;2023-03-14T05:32:27;9.38;88.07
72128;DHT22;60000;51.030;7.024;2023-03-14T05:34:52;9.36;87.95
72128;DHT22;60000;51.030;7.024;2023-03-14T05:37:18;9.39;87.86
72128;DHT22;60000;51.030;7.024;2023-03-14T05:39:43;9.43;87.64
72128;DHT22;60000;51.030;7.024;2023-03-14T05:42:08;9.48;87.09
72128;DHT22;60000;51.030;7.024;2023-03-14T05:44:34;9.49;86.98
72128;DHT22;60000;51.030;7.024;2023-03-14T05:46:59;9.51;86.82
72128;DHT22;60000;51.030;7.024;2023-03-14T05:49:24;9.52;86.70
72128;DHT22;60000;51.030;7.024;2023-03-14T05:51:51;9.52;86.59
72128;DHT22;60000;51.030;7.024;2023-03-14T05:54:16;9.52;86.26
72128;DHT22;60000;51.030;7.024;2023-03-14T05:56:41;9.51;86.16
72128;DHT22;60000;51.030;7.024;2023-03-14T05:59:07;9.52;85.78
72128;DHT22;60000;51.030;7.024;2023-03-14T06:01:34;9.53;85.77
72128;DHT22;60000;51.030;7.024;2023-03-14T06:04:00;9.53;85.62
72128;DHT22;60000;51.030;7.024;2023-03-14T06:06:25;9.58;85.34
72128;DHT22;60000;51.030;7.024;2023-03-14T06:08:50;9.66;84.74
72128;DHT22;60000;51.030;7.024;2023-03-14T06:11:15;9.69;84.70
72128;DHT22;60000;51.030;7.024;2023-03-14T06:13:41;9.76;84.11
72128;DHT22;60000;51.030;7.024;2023-03-14T06:16:06;9.79;84.14
72128;DHT22;60000;51.030;7.024;2023-03-14T06:18:32;9.78;84.50
72128;DHT22;60000;51.030;7.024;2023-03-14T06:20:57;9.76;85.01
72128;DHT22;60000;51.030;7.024;2023-03-14T06:23:22;9.78;85.11
72128;DHT22;60000;51.030;7.024;2023-03-14T06:25:48;9.72;85.28
72128;DHT22;60000;51.030;7.024;2023-03-14T06:28:13;9.69;85.42
72128;DHT22;60000;51.030;7.024;2023-03-14T06:30:39;9.66;85.52
72128;DHT22;60000;51.030;7.024;2023-03-14T06:33:04;9.66;85.43
72128;DHT22;60000;51.030;7.024;2023-03-14T06:35:30;9.65;85.53
72128;DHT22;60000;51.030;7.024;2023-03-14T06:37:55;9.70;85.52
72128;DHT22;60000;51.030;7.024;2023-03-14T06:40:20;9.68;85.32
72128;DHT22;60000;51.030;7.024;2023-03-14T06:42:46;9.68;85.51
72128;DHT22;60000;51.030;7.024;2023-03-14T06:45:13;9.70;85.65
72128;DHT22;60000;51.030;7.024;2023-03-14T06:47:38;9.69;85.61
72128;DHT22;60000;51.030;7.024;2023-03-14T06:50:05;9.72;85.63
72128;DHT22;60000;51.030;7.024;2023-03-14T06:52:30;9.76;85.53
72128;DHT22;60000;51.030;7.024;2023-03-14T06:54:56;9.82;85.36
72128;DHT22;60000;51.030;7.024;2023-03-14T06:57:21;9.86;85.31
72128;DHT22;60000;51.030;7.024;2023-03-14T06:59:46;9.89;84.95
72128;DHT22;60000;51.030;7.024;2023-03-14T07:02:12;9.94;84.58
72128;DHT22;60000;51.030;7.024;2023-03-14T07:04:38;9.96;84.48
72128;DHT22;60000;51.030;7.024;2023-03-14T07:07:03;9.96;84.51
72128;DHT22;60000;51.030;7.024;2023-03-14T07:09:29;10.00;84.41
72128;DHT22;60000;51.030;7.024;2023-03-14T07:11:54;10.03;84.08
72128;DHT22;60000;51.030;7.024;2023-03-14T07:14:19;10.09;83.80
72128;DHT22;60000;51.030;7.024;2023-03-14T07:16:44;10.11;83.60
72128;DHT22;60000;51.030;7.024;2023-03-14T07:19:10;10.13;83.56
72128;DHT22;60000;51.030;7.024;2023-03-14T07:21:36;10.16;83.42
72128;DHT22;60000;51.030;7.024;2023-03-14T07:24:01;10.14;83.46
72128;DHT22;60000;51.030;7.024;2023-03-14T07:26:27;10.17;83.39
72128;DHT22;60000;51.030;7.024;2023-03-14T07:28:52;10.24;83.13
72128;DHT22;60000;51.030;7.024;2023-03-14T07:31:17;10.27;82.93
72128;DHT22;60000;51.030;7.024;2023-03-14T07:33:43;10.31;82.90
72128;DHT22;60000;51.030;7.024;2023-03-14T07:36:10;10.36;82.90
72128;DHT22;60000;51.030;7.024;2023-03-14T07:38:35;10.44;82.78
72128;DHT22;60000;51.030;7.024;2023-03-14T07:41:02;10.49;82.62
72128;DHT22;60000;51.030;7.024;2023-03-14T07:43:28;10.54;82.30
72128;DHT22;60000;51.030;7.024;2023-03-14T07:45:54;10.57;82.06
72128;DHT22;60000;51.030;7.024;2023-03-14T07:48:19;10.59;81.81
72128;DHT22;60000;51.030;7.024;2023-03-14T07:50:48;10.64;82.00
72128;DHT22;60000;51.030;7.024;2023-03-14T07:53:14;10.64;82.06
72128;DHT22;60000;51.030;7.024;2023-03-14T07:55:39;10.65;81.64
72128;DHT22;60000;51.030;7.024;2023-03-14T07:58:05;10.75;81.50
72128;DHT22;60000;51.030;7.024;2023-03-14T08:00:30;10.76;81.62
72128;DHT22;60000;51.030;7.024;2023-03-14T08:02:55;10.79;81.71
72128;DHT22;60000;51.030;7.024;2023-03-14T08:05:21;10.83;81.71
72128;DHT22;60000;51.030;7.024;2023-03-14T08:07:46;10.85;81.44
72128;DHT22;60000;51.030;7.024;2023-03-14T08:10:11;10.88;81.38
72128;DHT22;60000;51.030;7.024;2023-03-14T08:12:40;10.89;81.50
72128;DHT22;60000;51.030;7.024;2023-03-14T08:15:06;10.96;81.81
72128;DHT22;60000;51.030;7.024;2023-03-14T08:17:32;10.96;82.54
72128;DHT22;60000;51.030;7.024;2023-03-14T08:19:57;10.99;82.43
72128;DHT22;60000;51.030;7.024;2023-03-14T08:22:22;11.00;82.73
72128;DHT22;60000;51.030;7.024;2023-03-14T08:24:47;11.06;82.73
72128;DHT22;60000;51.030;7.024;2023-03-14T08:27:13;11.12;82.26
72128;DHT22;60000;51.030;7.024;2023-03-14T08:29:39;11.17;82.44
72128;DHT22;60000;51.030;7.024;2023-03-14T08:32:06;11.24;82.43
72128;DHT22;60000;51.030;7.024;2023-03-14T08:34:33;11.29;82.40
72128;DHT22;60000;51.030;7.024;2023-03-14T08:36:59;11.33;82.32
72128;DHT22;60000;51.030;7.024;2023-03-14T08:39:24;11.34;82.40
72128;DHT22;60000;51.030;7.024;2023-03-14T08:41:49;11.29;82.63
72128;DHT22;60000;51.030;7.024;2023-03-14T08:44:15;11.24;82.80
72128;DHT22;60000;51.030;7.024;2023-03-14T08:46:40;11.22;83.06
72128;DHT22;60000;51.030;7.024;2023-03-14T08:49:05;11.23;83.43
72128;DHT22;60000;51.030;7.024;2023-03-14T08:51:30;11.17;84.09
72128;DHT22;60000;51.030;7.024;2023-03-14T08:53:56;11.15;84.50
72128;DHT22;60000;51.030;7.024;2023-03-14T08:56:21;11.13;84.79
72128;DHT22;60000;51.030;7.024;2023-03-14T08:58:46;11.10;85.22
72128;DHT22;60000;51.030;7.024;2023-03-14T09:01:12;11.10;85.62
72128;DHT22;60000;51.030;7.024;2023-03-14T09:03:37;11.09;85.35
72128;DHT22;60000;51.030;7.024;2023-03-14T09:06:08;11.03;85.01
72128;DHT22;60000;51.030;7.024;2023-03-14T09:08:34;11.03;85.33
72128;DHT22;60000;51.030;7.024;2023-03-14T09:11:00;11.00;85.22
72128;DHT22;60000;51.030;7.024;2023-03-14T09:13:25;10.99;85.27
72128;DHT22;60000;51.030;7.024;2023-03-14T09:15:51;10.95;85.68
72128;DHT22;60000;51.030;7.024;2023-03-14T09:18:17;10.91;86.09
72128;DHT22;60000;51.030;7.024;2023-03-14T09:20:42;10.89;86.61
72128;DHT22;60000;51.030;7.024;2023-03-14T09:23:07;10.83;86.50
72128;DHT22;60000;51.030;7.024;2023-03-14T09:25:33;10.82;86.17
72128;DHT22;60000;51.030;7.024;2023-03-14T09:27:58;10.85;86.05
72128;DHT22;60000;51.030;7.024;2023-03-14T09:30:23;10.83;86.42
72128;DHT22;60000;51.030;7.024;2023-03-14T09:32:48;10.86;86.76
72128;DHT22;60000;51.030;7.024;2023-03-14T09:35:14;10.89;86.68
72128;DHT22;60000;51.030;7.024;2023-03-14T09:37:39;10.89;86.24
72128;DHT22;60000;51.030;7.024;2023-03-14T09:40:05;10.88;86.16
72128;DHT22;60000;51.030;7.024;2023-03-14T09:42:36;10.80;85.08
72128;DHT22;60000;51.030;7.024;2023-03-14T09:45:05;10.61;85.18
72128;DHT22;60000;51.030;7.024;2023-03-14T09:47:33;10.22;82.01
72128;DHT22;60000;51.030;7.024;2023-03-14T09:49:59;9.96;81.57
72128;DHT22;60000;51.030;7.024;2023-03-14T09:52:30;9.72;81.08
72128;DHT22;60000;51.030;7.024;2023-03-14T09:55:02;9.53;82.19
72128;DHT22;60000;51.030;7.024;2023-03-14T09:57:34;9.41;82.64
72128;DHT22;60000;51.030;7.024;2023-03-14T10:00:19;9.32;83.29
72128;DHT22;60000;51.030;7.024;2023-03-14T10:02:51;9.21;84.12
72128;DHT22;60000;51.030;7.024;2023-03-14T10:05:20;9.10;84.66
72128;DHT22;60000;51.030;7.024;2023-03-14T10:07:46;9.08;85.26
72128;DHT22;60000;51.030;7.024;2023-03-14T10:10:18;9.04;85.43
72128;DHT22;60000;51.030;7.024;2023-03-14T10:12:55;9.00;85.92
72128;DHT22;60000;51.030;7.024;2023-03-14T10:15:26;8.94;85.50
72128;DHT22;60000;51.030;7.024;2023-03-14T10:17:52;8.91;85.61
72128;DHT22;60000;51.030;7.024;2023-03-14T10:20:35;8.84;85.85
72128;DHT22;60000;51.030;7.024;2023-03-14T10:25:34;8.74;86.10
72128;DHT22;60000;51.030;7.024;2023-03-14T10:28:00;8.69;86.03
72128;DHT22;60000;51.030;7.024;2023-03-14T10:35:43;8.53;84.26
72128;DHT22;60000;51.030;7.024;2023-03-14T10:38:16;8.56;84.12
72128;DHT22;60000;51.030;7.024;2023-03-14T10:40:47;8.48;84.80
72128;DHT22;60000;51.030;7.024;2023-03-14T10:43:17;8.41;85.44
72128;DHT22;60000;51.030;7.024;2023-03-14T10:45:52;8.38;85.74
72128;DHT22;60000;51.030;7.024;2023-03-14T10:48:23;8.41;85.98
72128;DHT22;60000;51.030;7.024;2023-03-14T10:53:40;8.26;86.64
72128;DHT22;60000;51.030;7.024;2023-03-14T10:56:06;8.16;86.78
72128;DHT22;60000;51.030;7.024;2023-03-14T10:58:35;8.11;87.17
72128;DHT22;60000;51.030;7.024;2023-03-14T11:01:25;8.09;87.04
72128;DHT22;60000;51.030;7.024;2023-03-14T11:03:57;8.08;87.13
72128;DHT22;60000;51.030;7.024;2023-03-14T11:09:30;8.31;87.87
72128;DHT22;60000;51.030;7.024;2023-03-14T11:12:14;8.41;87.41
72128;DHT22;60000;51.030;7.024;2023-03-14T11:14:50;8.52;87.24
72128;DHT22;60000;51.030;7.024;2023-03-14T11:22:41;8.84;85.93
72128;DHT22;60000;51.030;7.024;2023-03-14T11:25:32;8.90;85.00
72128;DHT22;60000;51.030;7.024;2023-03-14T11:28:15;8.90;84.82
72128;DHT22;60000;51.030;7.024;2023-03-14T11:30:53;8.83;84.87
72128;DHT22;60000;51.030;7.024;2023-03-14T11:33:27;8.84;84.97
72128;DHT22;60000;51.030;7.024;2023-03-14T11:36:07;8.79;84.09
72128;DHT22;60000;51.030;7.024;2023-03-14T11:38:55;8.59;84.15
72128;DHT22;60000;51.030;7.024;2023-03-14T11:41:31;8.41;85.20
72128;DHT22;60000;51.030;7.024;2023-03-14T11:44:01;8.32;85.48
72128;DHT22;60000;51.030;7.024;2023-03-14T11:46:35;8.15;85.03
72128;DHT22;60000;51.030;7.024;2023-03-14T11:51:56;8.06;85.53
72128;DHT22;60000;51.030;7.024;2023-03-14T11:54:49;8.05;86.37
72128;DHT22;60000;51.030;7.024;2023-03-14T11:57:20;8.06;86.08
72128;DHT22;60000;51.030;7.024;2023-03-14T11:59:56;8.01;86.82
72128;DHT22;60000;51.030;7.024;2023-03-14T12:05:27;7.81;86.03
72128;DHT22;60000;51.030;7.024;2023-03-14T12:10:53;7.60;84.69
72128;DHT22;60000;51.030;7.024;2023-03-14T12:13:20;7.53;84.86
72128;DHT22;60000;51.030;7.024;2023-03-14T12:16:04;7.49;85.59
72128;DHT22;60000;51.030;7.024;2023-03-14T12:18:35;7.50;86.03
72128;DHT22;60000;51.030;7.024;2023-03-14T12:21:07;7.56;85.08
72128;DHT22;60000;51.030;7.024;2023-03-14T12:23:44;7.60;85.58
72128;DHT22;60000;51.030;7.024;2023-03-14T12:28:39;7.69;85.19
72128;DHT22;60000;51.030;7.024;2023-03-14T12:39:35;7.75;83.01
72128;DHT22;60000;51.030;7.024;2023-03-14T12:42:13;7.74;83.61
72128;DHT22;60000;51.030;7.024;2023-03-14T12:49:43;7.50;81.72
72128;DHT22;60000;51.030;7.024;2023-03-14T12:52:19;7.46;81.89
72128;DHT22;60000;51.030;7.024;2023-03-14T12:54:57;7.50;82.12
72128;DHT22;60000;51.030;7.024;2023-03-14T12:57:36;7.54;82.04
72128;DHT22;60000;51.030;7.024;2023-03-14T13:00:34;7.57;82.02
72128;DHT22;60000;51.030;7.024;2023-03-14T13:03:21;7.61;81.51
72128;DHT22;60000;51.030;7.024;2023-03-14T13:06:03;7.71;81.24
72128;DHT22;60000;51.030;7.024;2023-03-14T13:08:42;7.74;80.51
72128;DHT22;60000;51.030;7.024;2023-03-14T13:11:21;7.78;80.86
72128;DHT22;60000;51.030;7.024;2023-03-14T13:13:57;7.88;80.49
72128;DHT22;60000;51.030;7.024;2023-03-14T13:16:24;8.02;80.07
72128;DHT22;60000;51.030;7.024;2023-03-14T13:19:01;8.13;79.37
72128;DHT22;60000;51.030;7.024;2023-03-14T13:21:28;8.22;78.54
72128;DHT22;60000;51.030;7.024;2023-03-14T13:24:01;8.15;78.58
72128;DHT22;60000;51.030;7.024;2023-03-14T13:26:42;8.08;78.59
72128;DHT22;60000;51.030;7.024;2023-03-14T13:29:31;7.99;77.97
72128;DHT22;60000;51.030;7.024;2023-03-14T13:32:10;7.85;76.58
72128;DHT22;60000;51.030;7.024;2023-03-14T13:34:38;7.73;75.87
72128;DHT22;60000;51.030;7.024;2023-03-14T13:37:03;7.66;77.38
72128;DHT22;60000;51.030;7.024;2023-03-14T13:39:29;7.57;78.23
72128;DHT22;60000;51.030;7.024;2023-03-14T13:41:57;7.47;78.84
72128;DHT22;60000;51.030;7.024;2023-03-14T13:44:38;7.40;78.77
72128;DHT22;60000;51.030;7.024;2023-03-14T13:47:09;7.30;78.60
72128;DHT22;60000;51.030;7.024;2023-03-14T13:49:37;7.27;78.90
72128;DHT22;60000;51.030;7.024;2023-03-14T13:52:19;7.33;80.10
72128;DHT22;60000;51.030;7.024;2023-03-14T13:54:46;7.33;78.94
72128;DHT22;60000;51.030;7.024;2023-03-14T13:57:11;7.30;79.27
72128;DHT22;60000;51.030;7.024;2023-03-14T13:59:36;7.37;80.41
72128;DHT22;60000;51.030;7.024;2023-03-14T14:02:14;7.39;79.16
72128;DHT22;60000;51.030;7.024;2023-03-14T14:04:39;7.36;79.07
72128;DHT22;60000;51.030;7.024;2023-03-14T14:07:12;7.40;79.13
72128;DHT22;60000;51.030;7.024;2023-03-14T14:09:40;7.46;79.18
72128;DHT22;60000;51.030;7.024;2023-03-14T14:12:13;7.50;78.69
72128;DHT22;60000;51.030;7.024;2023-03-14T14:14:43;7.50;78.37
72128;DHT22;60000;51.030;7.024;2023-03-14T14:17:14;7.42;78.22
72128;DHT22;60000;51.030;7.024;2023-03-14T14:19:44;7.36;77.46
72128;DHT22;60000;51.030;7.024;2023-03-14T14:22:10;7.27;76.17
72128;DHT22;60000;51.030;7.024;2023-03-14T14:24:36;7.13;74.97
72128;DHT22;60000;51.030;7.024;2023-03-14T14:27:32;7.03;75.71
72128;DHT22;60000;51.030;7.024;2023-03-14T14:30:06;6.98;76.26
72128;DHT22;60000;51.030;7.024;2023-03-14T14:32:50;6.98;75.99
72128;DHT22;60000;51.030;7.024;2023-03-14T14:35:31;7.05;77.39
72128;DHT22;60000;51.030;7.024;2023-03-14T14:37:57;7.11;77.76
72128;DHT22;60000;51.030;7.024;2023-03-14T14:40:24;7.13;76.20
72128;DHT22;60000;51.030;7.024;2023-03-14T14:42:50;7.18;76.04
72128;DHT22;60000;51.030;7.024;2023-03-14T14:45:19;7.22;76.70
72128;DHT22;60000;51.030;7.024;2023-03-14T14:48:09;7.20;76.35
72128;DHT22;60000;51.030;7.024;2023-03-14T14:50:39;7.22;75.96
72128;DHT22;60000;51.030;7.024;2023-03-14T14:53:40;7.22;75.99
72128;DHT22;60000;51.030;7.024;2023-03-14T14:56:20;7.20;76.13
72128;DHT22;60000;51.030;7.024;2023-03-14T14:58:48;7.27;77.30
72128;DHT22;60000;51.030;7.024;2023-03-14T15:01:19;7.36;77.09
72128;DHT22;60000;51.030;7.024;2023-03-14T15:03:46;7.42;77.12
72128;DHT22;60000;51.030;7.024;2023-03-14T15:06:13;7.49;76.86
72128;DHT22;60000;51.030;7.024;2023-03-14T15:08:39;7.50;76.72
72128;DHT22;60000;51.030;7.024;2023-03-14T15:11:05;7.50;76.51
72128;DHT22;60000;51.030;7.024;2023-03-14T15:13:30;7.53;76.19
72128;DHT22;60000;51.030;7.024;2023-03-14T15:15:56;7.57;76.88
72128;DHT22;60000;51.030;7.024;2023-03-14T15:18:23;7.59;75.99
72128;DHT22;60000;51.030;7.024;2023-03-14T15:20:49;7.57;75.96
72128;DHT22;60000;51.030;7.024;2023-03-14T15:23:18;7.60;75.99
72128;DHT22;60000;51.030;7.024;2023-03-14T15:25:43;7.66;75.42
72128;DHT22;60000;51.030;7.024;2023-03-14T15:28:15;7.67;75.23
72128;DHT22;60000;51.030;7.024;2023-03-14T15:30:41;7.70;75.23
72128;DHT22;60000;51.030;7.024;2023-03-14T15:33:06;7.75;75.50
72128;DHT22;60000;51.030;7.024;2023-03-14T15:35:37;7.80;75.12
72128;DHT22;60000;51.030;7.024;2023-03-14T15:38:02;7.81;75.03
72128;DHT22;60000;51.030;7.024;2023-03-14T15:40:28;7.82;74.30
72128;DHT22;60000;51.030;7.024;2023-03-14T15:42:53;7.82;74.06
72128;DHT22;60000;51.030;7.024;2023-03-14T15:45:19;7.82;73.84
72128;DHT22;60000;51.030;7.024;2023-03-14T15:47:44;7.81;73.82
72128;DHT22;60000;51.030;7.024;2023-03-14T15:50:10;7.81;74.54
72128;DHT22;60000;51.030;7.024;2023-03-14T15:52:35;7.81;73.33
72128;DHT22;60000;51.030;7.024;2023-03-14T15:55:01;7.80;71.93
72128;DHT22;60000;51.030;7.024;2023-03-14T15:57:26;7.78;72.21
72128;DHT22;60000;51.030;7.024;2023-03-14T15:59:52;7.80;70.23
72128;DHT22;60000;51.030;7.024;2023-03-14T16:02:17;7.75;64.36
72128;DHT22;60000;51.030;7.024;2023-03-14T16:04:42;7.69;62.12
72128;DHT22;60000;51.030;7.024;2023-03-14T16:07:08;7.63;59.44
72128;DHT22;60000;51.030;7.024;2023-03-14T16:09:34;7.56;60.25
72128;DHT22;60000;51.030;7.024;2023-03-14T16:11:59;7.56;60.21
72128;DHT22;60000;51.030;7.024;2023-03-14T16:14:25;7.54;59.97
72128;DHT22;60000;51.030;7.024;2023-03-14T16:16:51;7.54;56.97
72128;DHT22;60000;51.030;7.024;2023-03-14T16:19:17;7.50;57.34
72128;DHT22;60000;51.030;7.024;2023-03-14T16:21:42;7.50;58.02
72128;DHT22;60000;51.030;7.024;2023-03-14T16:24:07;7.50;58.55
72128;DHT22;60000;51.030;7.024;2023-03-14T16:26:33;7.50;58.27
72128;DHT22;60000;51.030;7.024;2023-03-14T16:29:01;7.47;57.21
72128;DHT22;60000;51.030;7.024;2023-03-14T16:31:27;7.47;56.23
72128;DHT22;60000;51.030;7.024;2023-03-14T16:33:52;7.44;55.82
72128;DHT22;60000;51.030;7.024;2023-03-14T16:36:18;7.42;55.57
72128;DHT22;60000;51.030;7.024;2023-03-14T16:38:44;7.44;54.23